sensor_id;sensor_type;location;lat;lon;timestamp;temperature;humidity
34766;DHT22;20984;43.508;1.504;2023-04-25T00:00:01;13.40;99.90
34766;DHT22;20984;43.508;1.504;2023-04-25T00:02:27;13.30;99.90
34766;DHT22;20984;43.508;1.504;2023-04-25T00:04:53;13.40;99.90
34766;DHT22;20984;43.508;1.504;2023-04-25T00:07:19;13.40;99.90
34766;DHT22;20984;43.508;1.504;2023-04-25T00:09:45;13.40;99.90
34766;DHT22;20984;43.508;1.504;2023-04-25T00:12:11;13.40;99.90
34766;DHT22;20984;43.508;1.504;2023-04-25T00:14:36;13.40;99.90
34766;DHT22;20984;43.508;1.504;2023-04-25T00:17:02;13.40;99.90
34766;DHT22;20984;43.508;1.504;2023-04-25T00:19:28;13.40;99.90
34766;DHT22;20984;43.508;1.504;2023-04-25T00:21:55;13.50;99.90
34766;DHT22;20984;43.508;1.504;2023-04-25T00:24:21;13.50;99.90
34766;DHT22;20984;43.508;1.504;2023-04-25T00:26:46;13.50;99.90
34766;DHT22;20984;43.508;1.504;2023-04-25T00:29:13;13.50;99.90
34766;DHT22;20984;43.508;1.504;2023-04-25T00:31:38;13.50;99.90
34766;DHT22;20984;43.508;1.504;2023-04-25T00:34:04;13.50;99.90
34766;DHT22;20984;43.508;1.504;2023-04-25T00:36:29;13.50;99.90
34766;DHT22;20984;43.508;1.504;2023-04-25T00:38:56;13.50;99.90
34766;DHT22;20984;43.508;1.504;2023-04-25T00:41:21;13.60;99.90
34766;DHT22;20984;43.508;1.504;2023-04-25T00:43:48;13.60;99.90
34766;DHT22;20984;43.508;1.504;2023-04-25T00:46:14;13.60;99.90
34766;DHT22;20984;43.508;1.504;2023-04-25T00:48:40;13.60;99.90
34766;DHT22;20984;43.508;1.504;2023-04-25T00:51:05;13.60;99.90
34766;DHT22;20984;43.508;1.504;2023-04-25T00:53:31;13.60;99.90
34766;DHT22;20984;43.508;1.504;2023-04-25T00:55:58;13.60;99.90
34766;DHT22;20984;43.508;1.504;2023-04-25T00:58:24;13.60;99.90
34766;DHT22;20984;43.508;1.504;2023-04-25T01:00:51;13.60;99.90
34766;DHT22;20984;43.508;1.504;2023-04-25T01:03:18;13.70;99.90
34766;DHT22;20984;43.508;1.504;2023-04-25T01:05:46;13.70;99.90
34766;DHT22;20984;43.508;1.504;2023-04-25T01:08:13;13.70;99.90
34766;DHT22;20984;43.508;1.504;2023-04-25T01:10:39;13.70;99.90
34766;DHT22;20984;43.508;1.504;2023-04-25T01:13:04;13.70;99.90
34766;DHT22;20984;43.508;1.504;2023-04-25T01:15:30;13.70;99.90
34766;DHT22;20984;43.508;1.504;2023-04-25T01:17:57;13.70;99.90
34766;DHT22;20984;43.508;1.504;2023-04-25T01:20:24;13.70;99.90
34766;DHT22;20984;43.508;1.504;2023-04-25T01:22:53;13.70;99.90
34766;DHT22;20984;43.508;1.504;2023-04-25T01:25:19;13.70;99.90
34766;DHT22;20984;43.508;1.504;2023-04-25T01:27:46;13.70;99.90
34766;DHT22;20984;43.508;1.504;2023-04-25T01:30:12;13.70;99.90
34766;DHT22;20984;43.508;1.504;2023-04-25T01:32:38;13.70;99.90
34766;DHT22;20984;43.508;1.504;2023-04-25T01:35:07;13.70;99.90
34766;DHT22;20984;43.508;1.504;2023-04-25T01:37:36;13.70;99.90
34766;DHT22;20984;43.508;1.504;2023-04-25T01:40:02;13.70;99.90
34766;DHT22;20984;43.508;1.504;2023-04-25T01:42:31;13.70;99.90
34766;DHT22;20984;43.508;1.504;2023-04-25T01:44:57;13.60;99.90
34766;DHT22;20984;43.508;1.504;2023-04-25T01:47:22;13.60;99.90
34766;DHT22;20984;43.508;1.504;2023-04-25T01:49:48;13.60;99.90
34766;DHT22;20984;43.508;1.504;2023-04-25T01:52:14;13.60;99.90
34766;DHT22;20984;43.508;1.504;2023-04-25T01:54:40;13.60;99.90
34766;DHT22;20984;43.508;1.504;2023-04-25T01:57:09;13.60;99.90
34766;DHT22;20984;43.508;1.504;2023-04-25T01:59:36;13.60;99.90
34766;DHT22;20984;43.508;1.504;2023-04-25T02:02:01;13.60;99.90
34766;DHT22;20984;43.508;1.504;2023-04-25T02:04:29;13.60;99.90
34766;DHT22;20984;43.508;1.504;2023-04-25T02:06:55;13.60;99.90
34766;DHT22;20984;43.508;1.504;2023-04-25T02:09:21;13.60;99.90
34766;DHT22;20984;43.508;1.504;2023-04-25T02:11:46;13.60;99.90
34766;DHT22;20984;43.508;1.504;2023-04-25T02:14:12;13.50;99.90
34766;DHT22;20984;43.508;1.504;2023-04-25T02:16:38;13.60;99.90
34766;DHT22;20984;43.508;1.504;2023-04-25T02:19:04;13.50;99.90
34766;DHT22;20984;43.508;1.504;2023-04-25T02:21:30;13.50;99.90
34766;DHT22;20984;43.508;1.504;2023-04-25T02:23:56;13.50;99.90
34766;DHT22;20984;43.508;1.504;2023-04-25T02:26:22;13.50;99.90
34766;DHT22;20984;43.508;1.504;2023-04-25T02:28:49;13.50;99.90
34766;DHT22;20984;43.508;1.504;2023-04-25T02:31:15;13.50;99.90
34766;DHT22;20984;43.508;1.504;2023-04-25T02:33:41;13.50;99.90
34766;DHT22;20984;43.508;1.504;2023-04-25T02:36:07;13.50;99.90
34766;DHT22;20984;43.508;1.504;2023-04-25T02:38:33;13.50;99.90
34766;DHT22;20984;43.508;1.504;2023-04-25T02:40:58;13.50;99.90
34766;DHT22;20984;43.508;1.504;2023-04-25T02:43:24;13.50;99.90
34766;DHT22;20984;43.508;1.504;2023-04-25T02:45:50;13.50;99.90
34766;DHT22;20984;43.508;1.504;2023-04-25T02:48:15;13.50;99.90
34766;DHT22;20984;43.508;1.504;2023-04-25T02:50:41;13.50;99.90
34766;DHT22;20984;43.508;1.504;2023-04-25T02:53:07;13.60;99.90
34766;DHT22;20984;43.508;1.504;2023-04-25T02:55:33;13.60;99.90
34766;DHT22;20984;43.508;1.504;2023-04-25T02:57:58;13.60;99.90
34766;DHT22;20984;43.508;1.504;2023-04-25T03:00:24;13.60;99.90
34766;DHT22;20984;43.508;1.504;2023-04-25T03:02:50;13.60;99.90
34766;DHT22;20984;43.508;1.504;2023-04-25T03:05:16;13.60;99.90
34766;DHT22;20984;43.508;1.504;2023-04-25T03:07:42;13.60;99.90
34766;DHT22;20984;43.508;1.504;2023-04-25T03:10:10;13.60;99.90
34766;DHT22;20984;43.508;1.504;2023-04-25T03:12:35;13.60;99.90
34766;DHT22;20984;43.508;1.504;2023-04-25T03:15:01;13.60;99.90
34766;DHT22;20984;43.508;1.504;2023-04-25T03:17:27;13.60;99.90
34766;DHT22;20984;43.508;1.504;2023-04-25T03:19:53;13.60;99.90
34766;DHT22;20984;43.508;1.504;2023-04-25T03:22:18;13.60;99.90
34766;DHT22;20984;43.508;1.504;2023-04-25T03:24:44;13.60;99.90
34766;DHT22;20984;43.508;1.504;2023-04-25T03:27:10;13.50;99.90
34766;DHT22;20984;43.508;1.504;2023-04-25T03:29:35;13.50;99.90
34766;DHT22;20984;43.508;1.504;2023-04-25T03:32:01;13.40;99.90
34766;DHT22;20984;43.508;1.504;2023-04-25T03:34:27;13.40;99.90
34766;DHT22;20984;43.508;1.504;2023-04-25T03:36:53;13.40;99.90
34766;DHT22;20984;43.508;1.504;2023-04-25T03:39:19;13.40;99.90
34766;DHT22;20984;43.508;1.504;2023-04-25T03:41:44;13.40;99.90
34766;DHT22;20984;43.508;1.504;2023-04-25T03:44:10;13.40;99.90
34766;DHT22;20984;43.508;1.504;2023-04-25T03:46:35;13.40;99.90
34766;DHT22;20984;43.508;1.504;2023-04-25T03:49:01;13.40;99.90
34766;DHT22;20984;43.508;1.504;2023-04-25T03:51:27;13.40;99.90
34766;DHT22;20984;43.508;1.504;2023-04-25T03:53:52;13.40;99.90
34766;DHT22;20984;43.508;1.504;2023-04-25T03:56:18;13.40;99.90
34766;DHT22;20984;43.508;1.504;2023-04-25T03:58:44;13.40;99.90
34766;DHT22;20984;43.508;1.504;2023-04-25T04:01:10;13.40;99.90
34766;DHT22;20984;43.508;1.504;2023-04-25T04:03:36;13.40;99.90
34766;DHT22;20984;43.508;1.504;2023-04-25T04:06:03;13.40;99.90
34766;DHT22;20984;43.508;1.504;2023-04-25T04:08:29;13.50;99.90
34766;DHT22;20984;43.508;1.504;2023-04-25T04:10:56;13.50;99.90
34766;DHT22;20984;43.508;1.504;2023-04-25T04:13:22;13.50;99.90
34766;DHT22;20984;43.508;1.504;2023-04-25T04:15:48;13.50;99.90
34766;DHT22;20984;43.508;1.504;2023-04-25T04:18:13;13.50;99.90
34766;DHT22;20984;43.508;1.504;2023-04-25T04:20:39;13.50;99.90
34766;DHT22;20984;43.508;1.504;2023-04-25T04:23:05;13.50;99.90
34766;DHT22;20984;43.508;1.504;2023-04-25T04:25:31;13.50;99.90
34766;DHT22;20984;43.508;1.504;2023-04-25T04:27:56;13.50;99.90
34766;DHT22;20984;43.508;1.504;2023-04-25T04:30:23;13.50;99.90
34766;DHT22;20984;43.508;1.504;2023-04-25T04:32:55;13.50;99.90
34766;DHT22;20984;43.508;1.504;2023-04-25T04:35:22;13.60;99.90
34766;DHT22;20984;43.508;1.504;2023-04-25T04:37:47;13.60;99.90
34766;DHT22;20984;43.508;1.504;2023-04-25T04:40:14;13.60;99.90
34766;DHT22;20984;43.508;1.504;2023-04-25T04:42:43;13.60;99.90
34766;DHT22;20984;43.508;1.504;2023-04-25T04:45:10;13.60;99.90
34766;DHT22;20984;43.508;1.504;2023-04-25T04:47:36;13.60;99.90
34766;DHT22;20984;43.508;1.504;2023-04-25T04:50:09;13.70;99.90
34766;DHT22;20984;43.508;1.504;2023-04-25T04:52:36;13.70;99.90
34766;DHT22;20984;43.508;1.504;2023-04-25T04:55:03;13.70;99.90
34766;DHT22;20984;43.508;1.504;2023-04-25T04:57:31;13.70;99.90
34766;DHT22;20984;43.508;1.504;2023-04-25T04:59:58;13.80;99.90
34766;DHT22;20984;43.508;1.504;2023-04-25T05:02:25;13.70;99.90
34766;DHT22;20984;43.508;1.504;2023-04-25T05:04:51;13.80;99.90
34766;DHT22;20984;43.508;1.504;2023-04-25T05:07:17;13.80;99.90
34766;DHT22;20984;43.508;1.504;2023-04-25T05:09:43;13.70;99.90
34766;DHT22;20984;43.508;1.504;2023-04-25T05:12:09;13.70;99.90
34766;DHT22;20984;43.508;1.504;2023-04-25T05:14:34;13.70;99.90
34766;DHT22;20984;43.508;1.504;2023-04-25T05:17:00;13.70;99.90
34766;DHT22;20984;43.508;1.504;2023-04-25T05:19:26;13.70;99.90
34766;DHT22;20984;43.508;1.504;2023-04-25T05:21:52;13.70;99.90
34766;DHT22;20984;43.508;1.504;2023-04-25T05:24:17;13.70;99.90
34766;DHT22;20984;43.508;1.504;2023-04-25T05:26:43;13.70;99.90
34766;DHT22;20984;43.508;1.504;2023-04-25T05:29:09;13.70;99.90
34766;DHT22;20984;43.508;1.504;2023-04-25T05:31:36;13.70;99.90
34766;DHT22;20984;43.508;1.504;2023-04-25T05:34:02;13.70;99.90
34766;DHT22;20984;43.508;1.504;2023-04-25T05:36:28;13.70;99.90
34766;DHT22;20984;43.508;1.504;2023-04-25T05:38:53;13.80;99.90
34766;DHT22;20984;43.508;1.504;2023-04-25T05:41:19;13.80;99.90
34766;DHT22;20984;43.508;1.504;2023-04-25T05:43:45;13.80;99.90
34766;DHT22;20984;43.508;1.504;2023-04-25T05:46:13;13.80;99.90
34766;DHT22;20984;43.508;1.504;2023-04-25T05:48:39;13.80;99.90
34766;DHT22;20984;43.508;1.504;2023-04-25T05:51:05;13.90;99.90
34766;DHT22;20984;43.508;1.504;2023-04-25T05:53:30;13.90;99.90
34766;DHT22;20984;43.508;1.504;2023-04-25T05:55:56;13.90;99.90
34766;DHT22;20984;43.508;1.504;2023-04-25T05:58:22;13.90;99.90
34766;DHT22;20984;43.508;1.504;2023-04-25T06:00:48;13.90;99.90
34766;DHT22;20984;43.508;1.504;2023-04-25T06:03:13;14.00;99.90
34766;DHT22;20984;43.508;1.504;2023-04-25T06:05:42;14.00;99.90
34766;DHT22;20984;43.508;1.504;2023-04-25T06:08:09;14.00;99.90
34766;DHT22;20984;43.508;1.504;2023-04-25T06:10:35;14.10;99.90
34766;DHT22;20984;43.508;1.504;2023-04-25T06:13:01;14.10;99.90
34766;DHT22;20984;43.508;1.504;2023-04-25T06:15:26;14.00;99.90
34766;DHT22;20984;43.508;1.504;2023-04-25T06:17:52;14.10;99.90
34766;DHT22;20984;43.508;1.504;2023-04-25T06:20:18;14.10;99.90
34766;DHT22;20984;43.508;1.504;2023-04-25T06:22:48;14.10;99.90
34766;DHT22;20984;43.508;1.504;2023-04-25T06:25:14;14.10;99.90
34766;DHT22;20984;43.508;1.504;2023-04-25T06:27:40;14.10;99.90
34766;DHT22;20984;43.508;1.504;2023-04-25T06:30:06;14.10;99.90
34766;DHT22;20984;43.508;1.504;2023-04-25T06:32:32;14.20;99.90
34766;DHT22;20984;43.508;1.504;2023-04-25T06:34:59;14.20;99.90
34766;DHT22;20984;43.508;1.504;2023-04-25T06:37:25;14.30;99.90
34766;DHT22;20984;43.508;1.504;2023-04-25T06:39:51;14.30;99.90
34766;DHT22;20984;43.508;1.504;2023-04-25T06:42:17;14.30;99.90
34766;DHT22;20984;43.508;1.504;2023-04-25T06:44:42;14.40;99.90
34766;DHT22;20984;43.508;1.504;2023-04-25T06:47:08;14.40;99.90
34766;DHT22;20984;43.508;1.504;2023-04-25T06:49:34;14.50;99.90
34766;DHT22;20984;43.508;1.504;2023-04-25T06:51:59;14.60;99.90
34766;DHT22;20984;43.508;1.504;2023-04-25T06:54:25;14.60;99.90
34766;DHT22;20984;43.508;1.504;2023-04-25T06:56:53;14.70;99.90
34766;DHT22;20984;43.508;1.504;2023-04-25T06:59:18;14.80;99.90
34766;DHT22;20984;43.508;1.504;2023-04-25T07:01:44;14.80;99.90
34766;DHT22;20984;43.508;1.504;2023-04-25T07:04:10;14.80;99.90
34766;DHT22;20984;43.508;1.504;2023-04-25T07:06:36;14.80;99.90
34766;DHT22;20984;43.508;1.504;2023-04-25T07:09:10;14.80;99.90
34766;DHT22;20984;43.508;1.504;2023-04-25T07:11:36;14.80;99.90
34766;DHT22;20984;43.508;1.504;2023-04-25T07:14:02;14.80;99.90
34766;DHT22;20984;43.508;1.504;2023-04-25T07:16:28;14.80;99.90
34766;DHT22;20984;43.508;1.504;2023-04-25T07:18:54;14.80;99.90
34766;DHT22;20984;43.508;1.504;2023-04-25T07:21:19;14.80;99.90
34766;DHT22;20984;43.508;1.504;2023-04-25T07:23:45;14.70;99.90
34766;DHT22;20984;43.508;1.504;2023-04-25T07:26:11;14.60;99.90
34766;DHT22;20984;43.508;1.504;2023-04-25T07:28:36;14.60;99.90
34766;DHT22;20984;43.508;1.504;2023-04-25T07:31:02;14.50;99.90
34766;DHT22;20984;43.508;1.504;2023-04-25T07:33:28;14.60;99.90
34766;DHT22;20984;43.508;1.504;2023-04-25T07:35:54;14.50;99.90
34766;DHT22;20984;43.508;1.504;2023-04-25T07:38:21;14.50;99.90
34766;DHT22;20984;43.508;1.504;2023-04-25T07:40:47;14.50;99.90
34766;DHT22;20984;43.508;1.504;2023-04-25T07:43:13;14.50;99.90
34766;DHT22;20984;43.508;1.504;2023-04-25T07:45:42;14.60;99.90
34766;DHT22;20984;43.508;1.504;2023-04-25T07:48:08;14.60;99.90
34766;DHT22;20984;43.508;1.504;2023-04-25T07:50:34;14.60;99.90
34766;DHT22;20984;43.508;1.504;2023-04-25T07:52:59;14.60;99.90
34766;DHT22;20984;43.508;1.504;2023-04-25T07:55:25;14.70;99.90
34766;DHT22;20984;43.508;1.504;2023-04-25T07:57:51;14.70;99.90
34766;DHT22;20984;43.508;1.504;2023-04-25T08:00:17;14.70;99.90
34766;DHT22;20984;43.508;1.504;2023-04-25T08:02:43;14.70;99.90
34766;DHT22;20984;43.508;1.504;2023-04-25T08:05:09;14.30;99.90
34766;DHT22;20984;43.508;1.504;2023-04-25T08:07:37;14.20;99.90
34766;DHT22;20984;43.508;1.504;2023-04-25T08:10:05;14.00;99.90
34766;DHT22;20984;43.508;1.504;2023-04-25T08:12:31;13.80;99.90
34766;DHT22;20984;43.508;1.504;2023-04-25T08:14:56;13.60;99.90
34766;DHT22;20984;43.508;1.504;2023-04-25T08:17:22;13.60;99.90
34766;DHT22;20984;43.508;1.504;2023-04-25T08:19:48;13.50;99.90
34766;DHT22;20984;43.508;1.504;2023-04-25T08:22:14;13.40;99.90
34766;DHT22;20984;43.508;1.504;2023-04-25T08:24:40;13.30;99.90
34766;DHT22;20984;43.508;1.504;2023-04-25T08:27:06;13.30;99.90
34766;DHT22;20984;43.508;1.504;2023-04-25T08:29:33;13.30;99.90
34766;DHT22;20984;43.508;1.504;2023-04-25T08:31:59;13.40;99.90
34766;DHT22;20984;43.508;1.504;2023-04-25T08:34:25;13.40;99.90
34766;DHT22;20984;43.508;1.504;2023-04-25T08:36:51;13.40;99.90
34766;DHT22;20984;43.508;1.504;2023-04-25T08:39:17;13.40;99.90
34766;DHT22;20984;43.508;1.504;2023-04-25T08:41:43;13.30;99.90
34766;DHT22;20984;43.508;1.504;2023-04-25T08:44:10;13.30;99.90
34766;DHT22;20984;43.508;1.504;2023-04-25T08:46:38;13.30;99.90
34766;DHT22;20984;43.508;1.504;2023-04-25T08:49:06;13.40;99.90
34766;DHT22;20984;43.508;1.504;2023-04-25T08:51:32;13.40;99.90
34766;DHT22;20984;43.508;1.504;2023-04-25T08:54:09;13.40;99.90
34766;DHT22;20984;43.508;1.504;2023-04-25T08:56:36;13.30;99.90
34766;DHT22;20984;43.508;1.504;2023-04-25T08:59:02;13.30;99.90
34766;DHT22;20984;43.508;1.504;2023-04-25T09:01:28;13.40;99.90
34766;DHT22;20984;43.508;1.504;2023-04-25T09:03:53;13.40;99.90
34766;DHT22;20984;43.508;1.504;2023-04-25T09:06:20;13.40;99.90
34766;DHT22;20984;43.508;1.504;2023-04-25T09:08:46;13.50;99.90
34766;DHT22;20984;43.508;1.504;2023-04-25T09:11:12;13.50;99.90
34766;DHT22;20984;43.508;1.504;2023-04-25T09:13:38;13.50;99.90
34766;DHT22;20984;43.508;1.504;2023-04-25T09:16:04;13.50;99.90
34766;DHT22;20984;43.508;1.504;2023-04-25T09:18:31;13.50;99.90
34766;DHT22;20984;43.508;1.504;2023-04-25T09:21:11;13.60;99.90
34766;DHT22;20984;43.508;1.504;2023-04-25T09:23:41;13.70;99.90
34766;DHT22;20984;43.508;1.504;2023-04-25T09:26:08;13.80;99.90
34766;DHT22;20984;43.508;1.504;2023-04-25T09:28:34;13.80;99.90
34766;DHT22;20984;43.508;1.504;2023-04-25T09:31:01;13.90;99.90
34766;DHT22;20984;43.508;1.504;2023-04-25T09:33:33;13.90;99.90
34766;DHT22;20984;43.508;1.504;2023-04-25T09:36:04;13.90;99.90
34766;DHT22;20984;43.508;1.504;2023-04-25T09:38:32;14.00;99.90
34766;DHT22;20984;43.508;1.504;2023-04-25T09:40:58;14.00;99.90
34766;DHT22;20984;43.508;1.504;2023-04-25T09:43:24;13.90;99.90
34766;DHT22;20984;43.508;1.504;2023-04-25T09:45:53;13.90;99.90
34766;DHT22;20984;43.508;1.504;2023-04-25T09:48:20;13.80;99.90
34766;DHT22;20984;43.508;1.504;2023-04-25T09:51:07;13.90;99.90
34766;DHT22;20984;43.508;1.504;2023-04-25T09:53:37;13.90;99.90
34766;DHT22;20984;43.508;1.504;2023-04-25T09:56:04;14.10;99.90
34766;DHT22;20984;43.508;1.504;2023-04-25T09:58:31;14.30;99.90
34766;DHT22;20984;43.508;1.504;2023-04-25T10:01:00;14.10;99.90
34766;DHT22;20984;43.508;1.504;2023-04-25T10:03:26;14.10;99.90
34766;DHT22;20984;43.508;1.504;2023-04-25T10:05:53;13.90;99.90
34766;DHT22;20984;43.508;1.504;2023-04-25T10:08:20;13.80;99.90
34766;DHT22;20984;43.508;1.504;2023-04-25T10:10:46;13.90;99.90
34766;DHT22;20984;43.508;1.504;2023-04-25T10:13:13;14.00;99.90
34766;DHT22;20984;43.508;1.504;2023-04-25T10:15:40;14.10;99.90
34766;DHT22;20984;43.508;1.504;2023-04-25T10:18:06;14.10;99.90
34766;DHT22;20984;43.508;1.504;2023-04-25T10:20:32;14.20;99.90
34766;DHT22;20984;43.508;1.504;2023-04-25T10:23:06;14.20;99.90
34766;DHT22;20984;43.508;1.504;2023-04-25T10:25:36;14.30;99.90
34766;DHT22;20984;43.508;1.504;2023-04-25T10:28:03;14.30;99.90
34766;DHT22;20984;43.508;1.504;2023-04-25T10:30:29;14.20;99.90
34766;DHT22;20984;43.508;1.504;2023-04-25T10:32:55;14.20;99.90
34766;DHT22;20984;43.508;1.504;2023-04-25T10:35:27;14.30;99.90
34766;DHT22;20984;43.508;1.504;2023-04-25T10:38:09;14.40;99.90
34766;DHT22;20984;43.508;1.504;2023-04-25T10:40:36;14.50;99.90
34766;DHT22;20984;43.508;1.504;2023-04-25T10:43:36;14.60;99.90
34766;DHT22;20984;43.508;1.504;2023-04-25T10:46:30;14.60;99.90
34766;DHT22;20984;43.508;1.504;2023-04-25T10:49:00;14.70;99.90
34766;DHT22;20984;43.508;1.504;2023-04-25T10:51:31;14.90;99.90
34766;DHT22;20984;43.508;1.504;2023-04-25T10:54:02;15.10;99.90
34766;DHT22;20984;43.508;1.504;2023-04-25T10:56:37;15.20;99.90
34766;DHT22;20984;43.508;1.504;2023-04-25T11:01:39;15.30;99.90
34766;DHT22;20984;43.508;1.504;2023-04-25T11:04:05;15.20;99.90
34766;DHT22;20984;43.508;1.504;2023-04-25T11:09:19;15.20;99.90
34766;DHT22;20984;43.508;1.504;2023-04-25T11:11:53;15.10;99.90
34766;DHT22;20984;43.508;1.504;2023-04-25T11:14:20;15.10;99.90
34766;DHT22;20984;43.508;1.504;2023-04-25T11:16:45;14.90;99.90
34766;DHT22;20984;43.508;1.504;2023-04-25T11:19:11;15.00;99.90
34766;DHT22;20984;43.508;1.504;2023-04-25T11:21:37;15.10;99.90
34766;DHT22;20984;43.508;1.504;2023-04-25T11:24:02;15.10;99.90
34766;DHT22;20984;43.508;1.504;2023-04-25T11:26:30;15.30;99.90
34766;DHT22;20984;43.508;1.504;2023-04-25T11:28:59;15.40;99.90
34766;DHT22;20984;43.508;1.504;2023-04-25T11:31:29;15.60;99.90
34766;DHT22;20984;43.508;1.504;2023-04-25T11:33:58;15.60;99.90
34766;DHT22;20984;43.508;1.504;2023-04-25T11:36:24;15.70;99.90
34766;DHT22;20984;43.508;1.504;2023-04-25T11:38:52;15.90;99.90
34766;DHT22;20984;43.508;1.504;2023-04-25T11:41:19;16.10;99.90
34766;DHT22;20984;43.508;1.504;2023-04-25T11:43:46;16.20;99.90
34766;DHT22;20984;43.508;1.504;2023-04-25T11:46:11;16.30;99.90
34766;DHT22;20984;43.508;1.504;2023-04-25T11:48:40;16.10;99.90
34766;DHT22;20984;43.508;1.504;2023-04-25T11:51:06;16.20;99.90
34766;DHT22;20984;43.508;1.504;2023-04-25T11:53:33;16.40;99.90
34766;DHT22;20984;43.508;1.504;2023-04-25T11:55:59;16.50;99.90
34766;DHT22;20984;43.508;1.504;2023-04-25T11:58:26;16.50;99.90
34766;DHT22;20984;43.508;1.504;2023-04-25T12:00:52;16.60;99.90
34766;DHT22;20984;43.508;1.504;2023-04-25T12:03:18;16.70;99.90
34766;DHT22;20984;43.508;1.504;2023-04-25T12:05:45;16.90;99.90
34766;DHT22;20984;43.508;1.504;2023-04-25T12:08:15;16.80;99.90
34766;DHT22;20984;43.508;1.504;2023-04-25T12:10:45;16.70;99.90
34766;DHT22;20984;43.508;1.504;2023-04-25T12:13:22;16.50;99.90
34766;DHT22;20984;43.508;1.504;2023-04-25T12:15:48;16.40;99.90
34766;DHT22;20984;43.508;1.504;2023-04-25T12:18:14;16.20;99.90
34766;DHT22;20984;43.508;1.504;2023-04-25T12:20:41;16.30;99.90
34766;DHT22;20984;43.508;1.504;2023-04-25T12:23:07;16.50;99.90
34766;DHT22;20984;43.508;1.504;2023-04-25T12:25:44;16.70;99.90
34766;DHT22;20984;43.508;1.504;2023-04-25T12:28:24;16.80;99.90
34766;DHT22;20984;43.508;1.504;2023-04-25T12:33:18;16.70;99.90
34766;DHT22;20984;43.508;1.504;2023-04-25T12:35:44;16.60;99.90
34766;DHT22;20984;43.508;1.504;2023-04-25T12:38:10;16.70;99.90
34766;DHT22;20984;43.508;1.504;2023-04-25T12:40:36;16.80;99.90
34766;DHT22;20984;43.508;1.504;2023-04-25T12:43:01;16.80;99.90
34766;DHT22;20984;43.508;1.504;2023-04-25T12:45:27;16.80;99.90
34766;DHT22;20984;43.508;1.504;2023-04-25T12:47:52;16.70;99.90
34766;DHT22;20984;43.508;1.504;2023-04-25T12:50:18;16.60;99.90
34766;DHT22;20984;43.508;1.504;2023-04-25T12:52:44;16.30;99.90
34766;DHT22;20984;43.508;1.504;2023-04-25T12:55:09;16.10;99.90
34766;DHT22;20984;43.508;1.504;2023-04-25T12:57:35;15.90;99.90
34766;DHT22;20984;43.508;1.504;2023-04-25T13:00:00;15.80;99.90
34766;DHT22;20984;43.508;1.504;2023-04-25T13:02:26;15.60;99.90
34766;DHT22;20984;43.508;1.504;2023-04-25T13:04:52;15.40;99.90
34766;DHT22;20984;43.508;1.504;2023-04-25T13:07:18;15.40;99.90
34766;DHT22;20984;43.508;1.504;2023-04-25T13:09:43;15.40;99.90
34766;DHT22;20984;43.508;1.504;2023-04-25T13:12:09;15.50;99.90
34766;DHT22;20984;43.508;1.504;2023-04-25T13:14:35;15.40;99.90
34766;DHT22;20984;43.508;1.504;2023-04-25T13:17:00;15.50;99.90
34766;DHT22;20984;43.508;1.504;2023-04-25T13:19:26;15.50;99.90
34766;DHT22;20984;43.508;1.504;2023-04-25T13:21:51;15.50;99.90
34766;DHT22;20984;43.508;1.504;2023-04-25T13:24:17;15.50;99.90
34766;DHT22;20984;43.508;1.504;2023-04-25T13:26:43;15.50;99.90
34766;DHT22;20984;43.508;1.504;2023-04-25T13:29:09;15.50;99.90
34766;DHT22;20984;43.508;1.504;2023-04-25T13:31:34;15.50;99.90
34766;DHT22;20984;43.508;1.504;2023-04-25T13:34:00;15.30;99.90
34766;DHT22;20984;43.508;1.504;2023-04-25T13:36:26;15.10;99.90
34766;DHT22;20984;43.508;1.504;2023-04-25T13:38:53;15.10;99.90
34766;DHT22;20984;43.508;1.504;2023-04-25T13:41:18;15.30;99.90
34766;DHT22;20984;43.508;1.504;2023-04-25T13:43:45;15.30;99.90
34766;DHT22;20984;43.508;1.504;2023-04-25T13:46:12;15.30;99.90
34766;DHT22;20984;43.508;1.504;2023-04-25T13:48:39;15.10;99.90
34766;DHT22;20984;43.508;1.504;2023-04-25T13:51:04;15.00;99.90
34766;DHT22;20984;43.508;1.504;2023-04-25T13:53:30;15.00;99.90
34766;DHT22;20984;43.508;1.504;2023-04-25T13:55:56;15.20;99.90
34766;DHT22;20984;43.508;1.504;2023-04-25T13:58:21;15.40;99.90
34766;DHT22;20984;43.508;1.504;2023-04-25T14:00:47;15.40;99.90
34766;DHT22;20984;43.508;1.504;2023-04-25T14:03:13;15.30;99.90
34766;DHT22;20984;43.508;1.504;2023-04-25T14:05:39;15.10;99.90
34766;DHT22;20984;43.508;1.504;2023-04-25T14:08:06;15.10;99.90
34766;DHT22;20984;43.508;1.504;2023-04-25T14:10:32;15.10;99.90
34766;DHT22;20984;43.508;1.504;2023-04-25T14:12:58;15.10;99.90
34766;DHT22;20984;43.508;1.504;2023-04-25T14:15:24;15.20;99.90
34766;DHT22;20984;43.508;1.504;2023-04-25T14:17:50;15.40;99.90
34766;DHT22;20984;43.508;1.504;2023-04-25T14:20:16;15.50;99.90
34766;DHT22;20984;43.508;1.504;2023-04-25T14:22:45;15.70;99.90
34766;DHT22;20984;43.508;1.504;2023-04-25T14:25:11;15.50;99.90
34766;DHT22;20984;43.508;1.504;2023-04-25T14:27:37;15.40;99.90
34766;DHT22;20984;43.508;1.504;2023-04-25T14:30:03;15.40;99.90
34766;DHT22;20984;43.508;1.504;2023-04-25T14:33:04;15.40;99.90
34766;DHT22;20984;43.508;1.504;2023-04-25T14:35:29;15.40;99.90
34766;DHT22;20984;43.508;1.504;2023-04-25T14:37:55;15.30;99.90
34766;DHT22;20984;43.508;1.504;2023-04-25T14:40:21;15.20;99.90
34766;DHT22;20984;43.508;1.504;2023-04-25T14:42:48;15.00;99.90
34766;DHT22;20984;43.508;1.504;2023-04-25T14:45:15;15.00;99.90
34766;DHT22;20984;43.508;1.504;2023-04-25T14:47:40;15.10;99.90
34766;DHT22;20984;43.508;1.504;2023-04-25T14:50:07;15.20;99.90
34766;DHT22;20984;43.508;1.504;2023-04-25T14:52:34;15.30;99.90
34766;DHT22;20984;43.508;1.504;2023-04-25T14:55:00;15.30;99.90
34766;DHT22;20984;43.508;1.504;2023-04-25T14:57:30;15.20;99.90
34766;DHT22;20984;43.508;1.504;2023-04-25T14:59:56;15.00;99.90
34766;DHT22;20984;43.508;1.504;2023-04-25T15:02:23;15.00;99.90
34766;DHT22;20984;43.508;1.504;2023-04-25T15:04:48;14.90;99.90
34766;DHT22;20984;43.508;1.504;2023-04-25T15:07:14;14.80;99.90
34766;DHT22;20984;43.508;1.504;2023-04-25T15:09:40;14.80;99.90
34766;DHT22;20984;43.508;1.504;2023-04-25T15:12:06;14.80;99.90
34766;DHT22;20984;43.508;1.504;2023-04-25T15:14:33;14.70;99.90
34766;DHT22;20984;43.508;1.504;2023-04-25T15:16:59;14.60;99.90
34766;DHT22;20984;43.508;1.504;2023-04-25T15:19:25;14.50;99.90
34766;DHT22;20984;43.508;1.504;2023-04-25T15:21:51;14.50;99.90
34766;DHT22;20984;43.508;1.504;2023-04-25T15:24:17;14.40;99.90
34766;DHT22;20984;43.508;1.504;2023-04-25T15:26:43;14.50;99.90
34766;DHT22;20984;43.508;1.504;2023-04-25T15:29:09;14.50;99.90
34766;DHT22;20984;43.508;1.504;2023-04-25T15:31:35;14.60;99.90
34766;DHT22;20984;43.508;1.504;2023-04-25T15:34:01;14.90;99.90